sensor_id;sensor_type;location;lat;lon;timestamp;P1;durP1;ratioP1;P2;durP2;ratioP2
66860;SDS011;53770;42.334;23.550;2022-07-29T00:00:50;9.40;;;5.30;;
66860;SDS011;53770;42.334;23.550;2022-07-29T00:03:16;12.00;;;5.93;;
66860;SDS011;53770;42.334;23.550;2022-07-29T00:05:43;13.85;;;5.60;;
66860;SDS011;53770;42.334;23.550;2022-07-29T00:08:10;10.90;;;5.85;;
66860;SDS011;53770;42.334;23.550;2022-07-29T00:10:37;11.83;;;6.20;;
66860;SDS011;53770;42.334;23.550;2022-07-29T00:13:03;10.20;;;6.88;;
66860;SDS011;53770;42.334;23.550;2022-07-29T00:15:32;10.13;;;6.28;;
66860;SDS011;53770;42.334;23.550;2022-07-29T00:17:59;10.75;;;7.15;;
66860;SDS011;53770;42.334;23.550;2022-07-29T00:20:25;10.73;;;6.20;;
66860;SDS011;53770;42.334;23.550;2022-07-29T00:22:52;8.70;;;4.97;;
66860;SDS011;53770;42.334;23.550;2022-07-29T00:25:19;8.68;;;4.70;;
66860;SDS011;53770;42.334;23.550;2022-07-29T00:27:46;7.55;;;4.85;;
66860;SDS011;53770;42.334;23.550;2022-07-29T00:30:12;9.95;;;5.30;;
66860;SDS011;53770;42.334;23.550;2022-07-29T00:32:41;8.60;;;4.80;;
66860;SDS011;53770;42.334;23.550;2022-07-29T00:35:08;7.30;;;4.90;;
66860;SDS011;53770;42.334;23.550;2022-07-29T00:37:52;9.35;;;5.82;;
66860;SDS011;53770;42.334;23.550;2022-07-29T00:40:19;8.05;;;5.00;;
66860;SDS011;53770;42.334;23.550;2022-07-29T00:42:47;8.60;;;5.30;;
66860;SDS011;53770;42.334;23.550;2022-07-29T00:45:15;8.35;;;4.80;;
66860;SDS011;53770;42.334;23.550;2022-07-29T00:47:44;12.67;;;5.50;;
66860;SDS011;53770;42.334;23.550;2022-07-29T00:50:11;7.88;;;5.05;;
66860;SDS011;53770;42.334;23.550;2022-07-29T00:52:39;8.02;;;5.03;;
66860;SDS011;53770;42.334;23.550;2022-07-29T00:55:08;9.00;;;5.65;;
66860;SDS011;53770;42.334;23.550;2022-07-29T00:57:37;7.82;;;5.05;;
66860;SDS011;53770;42.334;23.550;2022-07-29T01:00:05;9.63;;;6.17;;
66860;SDS011;53770;42.334;23.550;2022-07-29T01:02:34;9.10;;;5.40;;
66860;SDS011;53770;42.334;23.550;2022-07-29T01:05:02;9.18;;;5.60;;
66860;SDS011;53770;42.334;23.550;2022-07-29T01:07:31;9.57;;;5.60;;
66860;SDS011;53770;42.334;23.550;2022-07-29T01:10:00;11.68;;;5.72;;
66860;SDS011;53770;42.334;23.550;2022-07-29T01:12:28;8.63;;;5.10;;
66860;SDS011;53770;42.334;23.550;2022-07-29T01:14:56;9.10;;;5.15;;
66860;SDS011;53770;42.334;23.550;2022-07-29T01:17:26;9.63;;;5.78;;
66860;SDS011;53770;42.334;23.550;2022-07-29T01:20:00;8.55;;;5.35;;
66860;SDS011;53770;42.334;23.550;2022-07-29T01:22:40;8.80;;;5.18;;
66860;SDS011;53770;42.334;23.550;2022-07-29T01:25:25;7.63;;;4.90;;
66860;SDS011;53770;42.334;23.550;2022-07-29T01:28:08;8.65;;;5.40;;
66860;SDS011;53770;42.334;23.550;2022-07-29T01:31:00;8.38;;;4.82;;
66860;SDS011;53770;42.334;23.550;2022-07-29T01:33:29;8.25;;;4.75;;
66860;SDS011;53770;42.334;23.550;2022-07-29T01:39:10;8.20;;;4.43;;
66860;SDS011;53770;42.334;23.550;2022-07-29T01:41:43;11.50;;;4.93;;
66860;SDS011;53770;42.334;23.550;2022-07-29T01:44:18;7.13;;;4.40;;
66860;SDS011;53770;42.334;23.550;2022-07-29T01:46:50;6.78;;;4.28;;
66860;SDS011;53770;42.334;23.550;2022-07-29T01:49:21;7.40;;;3.80;;
66860;SDS011;53770;42.334;23.550;2022-07-29T01:51:51;7.70;;;4.77;;
66860;SDS011;53770;42.334;23.550;2022-07-29T01:54:21;8.73;;;4.55;;
66860;SDS011;53770;42.334;23.550;2022-07-29T01:56:53;7.93;;;4.45;;
66860;SDS011;53770;42.334;23.550;2022-07-29T01:59:24;6.60;;;4.40;;
66860;SDS011;53770;42.334;23.550;2022-07-29T02:01:53;7.60;;;4.10;;
66860;SDS011;53770;42.334;23.550;2022-07-29T02:04:21;7.60;;;4.00;;
66860;SDS011;53770;42.334;23.550;2022-07-29T02:06:49;7.22;;;4.30;;
66860;SDS011;53770;42.334;23.550;2022-07-29T02:09:18;6.72;;;4.30;;
66860;SDS011;53770;42.334;23.550;2022-07-29T02:11:48;8.23;;;4.18;;
66860;SDS011;53770;42.334;23.550;2022-07-29T02:14:18;7.55;;;4.72;;
66860;SDS011;53770;42.334;23.550;2022-07-29T02:16:50;7.37;;;4.47;;
66860;SDS011;53770;42.334;23.550;2022-07-29T02:19:20;9.90;;;4.78;;
66860;SDS011;53770;42.334;23.550;2022-07-29T02:21:50;7.68;;;4.57;;
66860;SDS011;53770;42.334;23.550;2022-07-29T02:24:18;7.38;;;4.47;;
66860;SDS011;53770;42.334;23.550;2022-07-29T02:26:48;7.25;;;4.28;;
66860;SDS011;53770;42.334;23.550;2022-07-29T02:29:16;7.80;;;4.70;;
66860;SDS011;53770;42.334;23.550;2022-07-29T02:31:45;10.68;;;4.50;;
66860;SDS011;53770;42.334;23.550;2022-07-29T02:34:16;6.53;;;4.00;;
66860;SDS011;53770;42.334;23.550;2022-07-29T02:36:44;9.02;;;4.38;;
66860;SDS011;53770;42.334;23.550;2022-07-29T02:39:12;7.00;;;4.47;;
66860;SDS011;53770;42.334;23.550;2022-07-29T02:41:41;7.70;;;4.23;;
66860;SDS011;53770;42.334;23.550;2022-07-29T02:44:11;9.05;;;4.45;;
66860;SDS011;53770;42.334;23.550;2022-07-29T02:46:41;7.07;;;4.30;;
66860;SDS011;53770;42.334;23.550;2022-07-29T02:49:15;6.72;;;4.45;;
66860;SDS011;53770;42.334;23.550;2022-07-29T02:51:46;7.03;;;4.07;;
66860;SDS011;53770;42.334;23.550;2022-07-29T02:54:23;9.13;;;4.37;;
66860;SDS011;53770;42.334;23.550;2022-07-29T02:56:55;8.38;;;4.40;;
66860;SDS011;53770;42.334;23.550;2022-07-29T02:59:26;8.45;;;4.95;;
66860;SDS011;53770;42.334;23.550;2022-07-29T03:01:57;6.93;;;4.05;;
66860;SDS011;53770;42.334;23.550;2022-07-29T03:04:26;7.45;;;5.07;;
66860;SDS011;53770;42.334;23.550;2022-07-29T03:06:55;7.70;;;4.60;;
66860;SDS011;53770;42.334;23.550;2022-07-29T03:09:25;8.63;;;4.82;;
66860;SDS011;53770;42.334;23.550;2022-07-29T03:11:54;8.27;;;4.32;;
66860;SDS011;53770;42.334;23.550;2022-07-29T03:14:22;7.10;;;4.30;;
66860;SDS011;53770;42.334;23.550;2022-07-29T03:16:49;7.35;;;4.30;;
66860;SDS011;53770;42.334;23.550;2022-07-29T03:19:17;7.37;;;4.77;;
66860;SDS011;53770;42.334;23.550;2022-07-29T03:21:46;9.55;;;4.70;;
66860;SDS011;53770;42.334;23.550;2022-07-29T03:24:24;8.07;;;5.50;;
66860;SDS011;53770;42.334;23.550;2022-07-29T03:26:51;8.57;;;5.18;;
66860;SDS011;53770;42.334;23.550;2022-07-29T03:29:18;7.97;;;4.72;;
66860;SDS011;53770;42.334;23.550;2022-07-29T03:31:45;7.40;;;4.20;;
66860;SDS011;53770;42.334;23.550;2022-07-29T03:34:12;6.72;;;4.22;;
66860;SDS011;53770;42.334;23.550;2022-07-29T03:36:39;7.53;;;4.47;;
66860;SDS011;53770;42.334;23.550;2022-07-29T03:39:07;7.30;;;3.88;;
66860;SDS011;53770;42.334;23.550;2022-07-29T03:41:36;7.40;;;4.35;;
66860;SDS011;53770;42.334;23.550;2022-07-29T03:44:06;8.77;;;4.70;;
66860;SDS011;53770;42.334;23.550;2022-07-29T03:46:34;6.93;;;4.32;;
66860;SDS011;53770;42.334;23.550;2022-07-29T03:49:03;8.07;;;5.00;;
66860;SDS011;53770;42.334;23.550;2022-07-29T03:51:33;6.65;;;4.07;;
66860;SDS011;53770;42.334;23.550;2022-07-29T03:54:01;9.40;;;4.30;;
66860;SDS011;53770;42.334;23.550;2022-07-29T03:56:29;7.77;;;4.07;;
66860;SDS011;53770;42.334;23.550;2022-07-29T03:58:59;7.47;;;4.78;;
66860;SDS011;53770;42.334;23.550;2022-07-29T04:01:27;7.28;;;4.63;;
66860;SDS011;53770;42.334;23.550;2022-07-29T04:03:54;7.18;;;4.28;;
66860;SDS011;53770;42.334;23.550;2022-07-29T04:06:21;9.02;;;4.53;;
66860;SDS011;53770;42.334;23.550;2022-07-29T04:08:48;6.80;;;4.10;;
66860;SDS011;53770;42.334;23.550;2022-07-29T04:11:15;8.40;;;4.82;;
66860;SDS011;53770;42.334;23.550;2022-07-29T04:13:43;7.15;;;4.50;;
66860;SDS011;53770;42.334;23.550;2022-07-29T04:16:10;6.78;;;4.35;;
66860;SDS011;53770;42.334;23.550;2022-07-29T04:18:36;6.95;;;4.32;;
66860;SDS011;53770;42.334;23.550;2022-07-29T04:21:03;12.43;;;5.90;;
66860;SDS011;53770;42.334;23.550;2022-07-29T04:23:30;10.68;;;6.07;;
66860;SDS011;53770;42.334;23.550;2022-07-29T04:25:58;10.75;;;7.28;;
66860;SDS011;53770;42.334;23.550;2022-07-29T04:28:26;10.48;;;6.72;;
66860;SDS011;53770;42.334;23.550;2022-07-29T04:30:54;9.07;;;6.03;;
66860;SDS011;53770;42.334;23.550;2022-07-29T04:33:21;8.83;;;5.83;;
66860;SDS011;53770;42.334;23.550;2022-07-29T04:35:48;7.60;;;4.40;;
66860;SDS011;53770;42.334;23.550;2022-07-29T04:38:14;7.78;;;4.50;;
66860;SDS011;53770;42.334;23.550;2022-07-29T04:40:41;10.23;;;5.35;;
66860;SDS011;53770;42.334;23.550;2022-07-29T04:43:08;10.57;;;5.63;;
66860;SDS011;53770;42.334;23.550;2022-07-29T04:45:34;10.70;;;5.40;;
66860;SDS011;53770;42.334;23.550;2022-07-29T04:48:03;8.50;;;5.18;;
66860;SDS011;53770;42.334;23.550;2022-07-29T04:50:30;8.15;;;5.00;;
66860;SDS011;53770;42.334;23.550;2022-07-29T04:52:57;8.68;;;5.70;;
66860;SDS011;53770;42.334;23.550;2022-07-29T04:55:24;8.27;;;5.13;;
66860;SDS011;53770;42.334;23.550;2022-07-29T04:57:51;12.00;;;5.03;;
66860;SDS011;53770;42.334;23.550;2022-07-29T05:00:18;10.10;;;5.07;;
66860;SDS011;53770;42.334;23.550;2022-07-29T05:02:44;8.70;;;5.07;;
66860;SDS011;53770;42.334;23.550;2022-07-29T05:05:13;8.45;;;5.40;;
66860;SDS011;53770;42.334;23.550;2022-07-29T05:07:39;9.18;;;5.20;;
66860;SDS011;53770;42.334;23.550;2022-07-29T05:10:07;8.63;;;5.70;;
66860;SDS011;53770;42.334;23.550;2022-07-29T05:12:34;11.38;;;5.68;;
66860;SDS011;53770;42.334;23.550;2022-07-29T05:15:01;10.60;;;5.70;;
66860;SDS011;53770;42.334;23.550;2022-07-29T05:17:28;9.90;;;5.43;;
66860;SDS011;53770;42.334;23.550;2022-07-29T05:19:55;9.07;;;5.45;;
66860;SDS011;53770;42.334;23.550;2022-07-29T05:22:23;9.53;;;4.83;;
66860;SDS011;53770;42.334;23.550;2022-07-29T05:24:50;8.05;;;5.55;;
66860;SDS011;53770;42.334;23.550;2022-07-29T05:27:16;8.60;;;5.70;;
66860;SDS011;53770;42.334;23.550;2022-07-29T05:29:43;9.40;;;5.50;;
66860;SDS011;53770;42.334;23.550;2022-07-29T05:32:10;11.45;;;5.88;;
66860;SDS011;53770;42.334;23.550;2022-07-29T05:34:37;8.60;;;5.77;;
66860;SDS011;53770;42.334;23.550;2022-07-29T05:37:03;9.25;;;6.55;;
66860;SDS011;53770;42.334;23.550;2022-07-29T05:39:32;10.05;;;5.97;;
66860;SDS011;53770;42.334;23.550;2022-07-29T05:41:58;12.35;;;6.38;;
66860;SDS011;53770;42.334;23.550;2022-07-29T05:44:25;13.65;;;6.05;;
66860;SDS011;53770;42.334;23.550;2022-07-29T05:46:52;11.53;;;6.90;;
66860;SDS011;53770;42.334;23.550;2022-07-29T05:49:19;10.88;;;6.20;;
66860;SDS011;53770;42.334;23.550;2022-07-29T05:51:45;10.10;;;6.28;;
66860;SDS011;53770;42.334;23.550;2022-07-29T05:54:13;10.70;;;6.35;;
66860;SDS011;53770;42.334;23.550;2022-07-29T05:56:42;10.20;;;6.30;;
66860;SDS011;53770;42.334;23.550;2022-07-29T05:59:08;11.33;;;6.57;;
66860;SDS011;53770;42.334;23.550;2022-07-29T06:01:35;11.00;;;7.07;;
66860;SDS011;53770;42.334;23.550;2022-07-29T06:04:04;11.30;;;7.50;;
66860;SDS011;53770;42.334;23.550;2022-07-29T06:06:31;11.88;;;7.78;;
66860;SDS011;53770;42.334;23.550;2022-07-29T06:08:58;14.50;;;7.78;;
66860;SDS011;53770;42.334;23.550;2022-07-29T06:11:25;11.03;;;7.27;;
66860;SDS011;53770;42.334;23.550;2022-07-29T06:13:53;16.90;;;7.65;;
66860;SDS011;53770;42.334;23.550;2022-07-29T06:16:20;13.40;;;7.68;;
66860;SDS011;53770;42.334;23.550;2022-07-29T06:18:47;11.32;;;7.15;;
66860;SDS011;53770;42.334;23.550;2022-07-29T06:21:14;11.18;;;7.30;;
66860;SDS011;53770;42.334;23.550;2022-07-29T06:23:40;10.33;;;7.00;;
66860;SDS011;53770;42.334;23.550;2022-07-29T06:26:07;10.52;;;7.03;;
66860;SDS011;53770;42.334;23.550;2022-07-29T06:28:34;11.48;;;7.65;;
66860;SDS011;53770;42.334;23.550;2022-07-29T06:31:02;11.48;;;6.70;;
66860;SDS011;53770;42.334;23.550;2022-07-29T06:33:29;11.45;;;6.85;;
66860;SDS011;53770;42.334;23.550;2022-07-29T06:35:56;11.10;;;7.10;;
66860;SDS011;53770;42.334;23.550;2022-07-29T06:38:23;13.50;;;6.95;;
66860;SDS011;53770;42.334;23.550;2022-07-29T06:40:49;9.18;;;5.95;;
66860;SDS011;53770;42.334;23.550;2022-07-29T06:43:32;12.35;;;6.90;;
66860;SDS011;53770;42.334;23.550;2022-07-29T06:46:04;11.30;;;6.78;;
66860;SDS011;53770;42.334;23.550;2022-07-29T06:48:31;10.23;;;6.53;;
66860;SDS011;53770;42.334;23.550;2022-07-29T06:50:58;11.38;;;6.53;;
66860;SDS011;53770;42.334;23.550;2022-07-29T06:53:26;9.48;;;6.78;;
66860;SDS011;53770;42.334;23.550;2022-07-29T06:55:53;9.65;;;5.28;;
66860;SDS011;53770;42.334;23.550;2022-07-29T06:58:20;11.38;;;6.10;;
66860;SDS011;53770;42.334;23.550;2022-07-29T07:00:47;8.30;;;5.73;;
66860;SDS011;53770;42.334;23.550;2022-07-29T07:03:15;9.10;;;6.00;;
66860;SDS011;53770;42.334;23.550;2022-07-29T07:05:42;8.15;;;5.47;;
66860;SDS011;53770;42.334;23.550;2022-07-29T07:08:09;8.95;;;5.88;;
66860;SDS011;53770;42.334;23.550;2022-07-29T07:10:37;9.57;;;5.93;;
66860;SDS011;53770;42.334;23.550;2022-07-29T07:13:04;7.83;;;5.90;;
66860;SDS011;53770;42.334;23.550;2022-07-29T07:15:31;9.40;;;6.03;;
66860;SDS011;53770;42.334;23.550;2022-07-29T07:17:58;7.20;;;5.53;;
66860;SDS011;53770;42.334;23.550;2022-07-29T07:20:27;10.35;;;5.53;;
66860;SDS011;53770;42.334;23.550;2022-07-29T07:22:54;8.00;;;4.93;;
66860;SDS011;53770;42.334;23.550;2022-07-29T07:25:20;6.77;;;4.53;;
66860;SDS011;53770;42.334;23.550;2022-07-29T07:27:47;8.55;;;4.82;;
66860;SDS011;53770;42.334;23.550;2022-07-29T07:30:14;9.40;;;5.22;;
66860;SDS011;53770;42.334;23.550;2022-07-29T07:32:41;6.93;;;4.28;;
66860;SDS011;53770;42.334;23.550;2022-07-29T07:35:08;8.85;;;4.90;;
66860;SDS011;53770;42.334;23.550;2022-07-29T07:37:37;7.17;;;4.60;;
66860;SDS011;53770;42.334;23.550;2022-07-29T07:40:05;6.65;;;4.93;;
66860;SDS011;53770;42.334;23.550;2022-07-29T07:42:33;6.05;;;4.68;;
66860;SDS011;53770;42.334;23.550;2022-07-29T07:45:00;6.43;;;3.72;;
66860;SDS011;53770;42.334;23.550;2022-07-29T07:47:27;5.68;;;4.20;;
66860;SDS011;53770;42.334;23.550;2022-07-29T07:49:53;7.83;;;4.10;;
66860;SDS011;53770;42.334;23.550;2022-07-29T07:52:20;6.57;;;4.78;;
66860;SDS011;53770;42.334;23.550;2022-07-29T07:54:49;6.32;;;4.13;;
66860;SDS011;53770;42.334;23.550;2022-07-29T07:57:16;7.50;;;4.50;;
66860;SDS011;53770;42.334;23.550;2022-07-29T07:59:43;8.13;;;5.00;;
66860;SDS011;53770;42.334;23.550;2022-07-29T08:02:10;7.20;;;4.60;;
66860;SDS011;53770;42.334;23.550;2022-07-29T08:04:36;12.65;;;5.30;;
66860;SDS011;53770;42.334;23.550;2022-07-29T08:07:05;7.75;;;5.13;;
66860;SDS011;53770;42.334;23.550;2022-07-29T08:09:32;6.90;;;4.80;;
66860;SDS011;53770;42.334;23.550;2022-07-29T08:12:00;6.72;;;5.28;;
66860;SDS011;53770;42.334;23.550;2022-07-29T08:14:29;8.47;;;4.90;;
66860;SDS011;53770;42.334;23.550;2022-07-29T08:16:56;8.88;;;5.38;;
66860;SDS011;53770;42.334;23.550;2022-07-29T08:19:23;7.95;;;5.03;;
66860;SDS011;53770;42.334;23.550;2022-07-29T08:21:49;8.27;;;5.38;;
66860;SDS011;53770;42.334;23.550;2022-07-29T08:24:18;9.57;;;5.47;;
66860;SDS011;53770;42.334;23.550;2022-07-29T08:27:04;8.77;;;5.50;;
66860;SDS011;53770;42.334;23.550;2022-07-29T08:29:31;9.73;;;5.20;;
66860;SDS011;53770;42.334;23.550;2022-07-29T08:31:58;9.02;;;5.35;;
66860;SDS011;53770;42.334;23.550;2022-07-29T08:34:25;8.38;;;5.20;;
66860;SDS011;53770;42.334;23.550;2022-07-29T08:36:51;8.98;;;5.05;;
66860;SDS011;53770;42.334;23.550;2022-07-29T08:39:18;7.20;;;5.33;;
66860;SDS011;53770;42.334;23.550;2022-07-29T08:41:45;7.47;;;5.13;;
66860;SDS011;53770;42.334;23.550;2022-07-29T08:44:13;8.50;;;5.65;;
66860;SDS011;53770;42.334;23.550;2022-07-29T08:46:41;6.82;;;4.97;;
66860;SDS011;53770;42.334;23.550;2022-07-29T08:49:08;7.95;;;4.63;;
66860;SDS011;53770;42.334;23.550;2022-07-29T08:51:35;8.10;;;4.93;;
66860;SDS011;53770;42.334;23.550;2022-07-29T08:54:05;6.15;;;4.85;;
66860;SDS011;53770;42.334;23.550;2022-07-29T08:56:34;8.40;;;4.35;;
66860;SDS011;53770;42.334;23.550;2022-07-29T08:59:02;7.00;;;5.00;;
66860;SDS011;53770;42.334;23.550;2022-07-29T09:01:32;6.05;;;4.65;;
66860;SDS011;53770;42.334;23.550;2022-07-29T09:03:59;7.50;;;4.30;;
66860;SDS011;53770;42.334;23.550;2022-07-29T09:06:30;7.03;;;4.35;;
66860;SDS011;53770;42.334;23.550;2022-07-29T09:08:59;6.22;;;4.20;;
66860;SDS011;53770;42.334;23.550;2022-07-29T09:11:26;6.40;;;3.80;;
66860;SDS011;53770;42.334;23.550;2022-07-29T09:13:53;5.75;;;3.85;;
66860;SDS011;53770;42.334;23.550;2022-07-29T09:16:20;6.63;;;4.80;;
66860;SDS011;53770;42.334;23.550;2022-07-29T09:18:48;7.00;;;4.30;;
66860;SDS011;53770;42.334;23.550;2022-07-29T09:21:16;5.35;;;4.15;;
66860;SDS011;53770;42.334;23.550;2022-07-29T09:24:02;7.20;;;4.95;;
66860;SDS011;53770;42.334;23.550;2022-07-29T09:26:31;5.50;;;4.07;;
66860;SDS011;53770;42.334;23.550;2022-07-29T09:28:59;5.27;;;3.90;;
66860;SDS011;53770;42.334;23.550;2022-07-29T09:31:33;6.38;;;4.15;;
66860;SDS011;53770;42.334;23.550;2022-07-29T09:34:03;6.13;;;4.28;;
66860;SDS011;53770;42.334;23.550;2022-07-29T09:36:30;6.78;;;4.78;;
66860;SDS011;53770;42.334;23.550;2022-07-29T09:38:57;10.30;;;5.55;;
66860;SDS011;53770;42.334;23.550;2022-07-29T09:41:25;6.30;;;5.13;;
66860;SDS011;53770;42.334;23.550;2022-07-29T09:43:53;8.30;;;4.32;;
66860;SDS011;53770;42.334;23.550;2022-07-29T09:46:21;10.15;;;5.65;;
66860;SDS011;53770;42.334;23.550;2022-07-29T09:49:09;5.32;;;4.45;;
66860;SDS011;53770;42.334;23.550;2022-07-29T09:51:37;4.55;;;3.60;;
66860;SDS011;53770;42.334;23.550;2022-07-29T09:56:50;5.40;;;4.88;;
66860;SDS011;53770;42.334;23.550;2022-07-29T09:59:18;5.40;;;4.32;;
66860;SDS011;53770;42.334;23.550;2022-07-29T10:01:47;6.65;;;5.25;;
66860;SDS011;53770;42.334;23.550;2022-07-29T10:04:16;5.35;;;4.82;;
66860;SDS011;53770;42.334;23.550;2022-07-29T10:06:57;6.03;;;5.27;;
66860;SDS011;53770;42.334;23.550;2022-07-29T10:09:25;6.55;;;5.82;;
66860;SDS011;53770;42.334;23.550;2022-07-29T10:12:02;7.95;;;6.32;;
66860;SDS011;53770;42.334;23.550;2022-07-29T10:14:34;6.60;;;5.70;;
66860;SDS011;53770;42.334;23.550;2022-07-29T10:17:02;7.03;;;6.40;;
66860;SDS011;53770;42.334;23.550;2022-07-29T10:19:32;7.60;;;6.67;;
66860;SDS011;53770;42.334;23.550;2022-07-29T10:22:00;5.55;;;5.05;;
66860;SDS011;53770;42.334;23.550;2022-07-29T10:24:28;8.13;;;7.30;;
66860;SDS011;53770;42.334;23.550;2022-07-29T10:26:56;8.13;;;7.50;;
66860;SDS011;53770;42.334;23.550;2022-07-29T10:29:25;9.00;;;8.20;;
66860;SDS011;53770;42.334;23.550;2022-07-29T10:31:57;8.83;;;7.93;;
66860;SDS011;53770;42.334;23.550;2022-07-29T10:34:43;7.43;;;5.93;;
66860;SDS011;53770;42.334;23.550;2022-07-29T10:37:22;7.30;;;6.60;;
66860;SDS011;53770;42.334;23.550;2022-07-29T10:39:58;7.10;;;6.32;;
66860;SDS011;53770;42.334;23.550;2022-07-29T10:42:53;6.68;;;5.18;;
66860;SDS011;53770;42.334;23.550;2022-07-29T10:45:21;7.03;;;6.27;;
66860;SDS011;53770;42.334;23.550;2022-07-29T10:47:48;7.38;;;6.78;;
66860;SDS011;53770;42.334;23.550;2022-07-29T10:53:23;8.98;;;6.82;;
66860;SDS011;53770;42.334;23.550;2022-07-29T10:55:51;4.65;;;4.25;;
66860;SDS011;53770;42.334;23.550;2022-07-29T10:58:19;5.87;;;4.17;;
66860;SDS011;53770;42.334;23.550;2022-07-29T11:00:47;11.63;;;4.63;;
66860;SDS011;53770;42.334;23.550;2022-07-29T11:06:13;7.70;;;4.70;;
66860;SDS011;53770;42.334;23.550;2022-07-29T11:08:40;5.97;;;4.40;;
66860;SDS011;53770;42.334;23.550;2022-07-29T11:14:05;7.18;;;6.38;;
66860;SDS011;53770;42.334;23.550;2022-07-29T11:19:28;4.82;;;4.07;;
66860;SDS011;53770;42.334;23.550;2022-07-29T11:21:57;7.10;;;5.40;;
66860;SDS011;53770;42.334;23.550;2022-07-29T11:24:25;5.53;;;4.03;;
66860;SDS011;53770;42.334;23.550;2022-07-29T11:27:05;6.35;;;5.78;;
66860;SDS011;53770;42.334;23.550;2022-07-29T11:29:33;7.35;;;6.60;;
66860;SDS011;53770;42.334;23.550;2022-07-29T11:32:11;5.53;;;5.03;;
66860;SDS011;53770;42.334;23.550;2022-07-29T11:34:40;6.55;;;5.95;;
66860;SDS011;53770;42.334;23.550;2022-07-29T11:37:21;5.47;;;4.90;;
66860;SDS011;53770;42.334;23.550;2022-07-29T11:42:38;5.35;;;4.85;;
66860;SDS011;53770;42.334;23.550;2022-07-29T11:45:13;5.30;;;4.80;;
66860;SDS011;53770;42.334;23.550;2022-07-29T11:47:55;5.80;;;5.20;;
66860;SDS011;53770;42.334;23.550;2022-07-29T11:50:29;6.30;;;5.40;;
66860;SDS011;53770;42.334;23.550;2022-07-29T11:52:59;5.68;;;4.55;;
66860;SDS011;53770;42.334;23.550;2022-07-29T11:55:26;5.35;;;4.85;;
66860;SDS011;53770;42.334;23.550;2022-07-29T11:57:54;9.48;;;7.50;;
66860;SDS011;53770;42.334;23.550;2022-07-29T12:00:26;6.07;;;5.32;;
66860;SDS011;53770;42.334;23.550;2022-07-29T12:02:54;5.30;;;4.80;;
66860;SDS011;53770;42.334;23.550;2022-07-29T12:05:30;6.35;;;5.68;;
66860;SDS011;53770;42.334;23.550;2022-07-29T12:08:07;9.07;;;8.35;;
66860;SDS011;53770;42.334;23.550;2022-07-29T12:10:35;6.20;;;5.70;;
66860;SDS011;53770;42.334;23.550;2022-07-29T12:13:02;8.85;;;7.95;;
66860;SDS011;53770;42.334;23.550;2022-07-29T12:15:30;9.20;;;8.50;;
66860;SDS011;53770;42.334;23.550;2022-07-29T12:17:56;10.35;;;9.55;;
66860;SDS011;53770;42.334;23.550;2022-07-29T12:20:24;6.47;;;5.60;;
66860;SDS011;53770;42.334;23.550;2022-07-29T12:22:52;5.82;;;5.30;;
66860;SDS011;53770;42.334;23.550;2022-07-29T12:25:21;9.00;;;8.35;;
66860;SDS011;53770;42.334;23.550;2022-07-29T12:27:58;10.10;;;9.23;;
66860;SDS011;53770;42.334;23.550;2022-07-29T12:30:34;8.23;;;7.43;;
66860;SDS011;53770;42.334;23.550;2022-07-29T12:33:09;10.10;;;9.25;;
66860;SDS011;53770;42.334;23.550;2022-07-29T12:35:37;10.18;;;9.38;;
66860;SDS011;53770;42.334;23.550;2022-07-29T12:38:04;9.73;;;8.82;;
66860;SDS011;53770;42.334;23.550;2022-07-29T12:40:33;9.83;;;9.13;;
66860;SDS011;53770;42.334;23.550;2022-07-29T12:43:09;8.43;;;7.47;;
66860;SDS011;53770;42.334;23.550;2022-07-29T12:45:38;12.13;;;11.13;;
66860;SDS011;53770;42.334;23.550;2022-07-29T12:48:06;13.07;;;11.90;;
66860;SDS011;53770;42.334;23.550;2022-07-29T12:50:34;12.95;;;12.10;;
66860;SDS011;53770;42.334;23.550;2022-07-29T12:53:08;14.50;;;13.30;;
66860;SDS011;53770;42.334;23.550;2022-07-29T12:55:44;14.77;;;13.68;;
66860;SDS011;53770;42.334;23.550;2022-07-29T12:58:14;13.23;;;12.30;;
66860;SDS011;53770;42.334;23.550;2022-07-29T13:00:58;14.90;;;13.85;;
66860;SDS011;53770;42.334;23.550;2022-07-29T13:03:43;16.13;;;15.02;;
66860;SDS011;53770;42.334;23.550;2022-07-29T13:06:27;15.43;;;14.33;;
66860;SDS011;53770;42.334;23.550;2022-07-29T13:08:58;15.40;;;14.40;;
66860;SDS011;53770;42.334;23.550;2022-07-29T13:11:28;17.00;;;15.90;;
66860;SDS011;53770;42.334;23.550;2022-07-29T13:13:56;14.93;;;13.93;;
66860;SDS011;53770;42.334;23.550;2022-07-29T13:16:22;14.48;;;13.57;;
66860;SDS011;53770;42.334;23.550;2022-07-29T13:19:02;16.50;;;15.37;;
66860;SDS011;53770;42.334;23.550;2022-07-29T13:21:30;17.65;;;16.45;;
66860;SDS011;53770;42.334;23.550;2022-07-29T13:23:57;15.55;;;14.55;;
66860;SDS011;53770;42.334;23.550;2022-07-29T13:26:23;17.20;;;15.98;;
66860;SDS011;53770;42.334;23.550;2022-07-29T13:28:52;16.00;;;14.90;;
66860;SDS011;53770;42.334;23.550;2022-07-29T13:31:18;17.80;;;16.53;;
66860;SDS011;53770;42.334;23.550;2022-07-29T13:33:45;18.27;;;17.00;;
66860;SDS011;53770;42.334;23.550;2022-07-29T13:36:12;15.80;;;14.52;;
66860;SDS011;53770;42.334;23.550;2022-07-29T13:38:39;16.85;;;15.75;;
66860;SDS011;53770;42.334;23.550;2022-07-29T13:41:06;15.75;;;14.65;;
66860;SDS011;53770;42.334;23.550;2022-07-29T13:43:33;16.33;;;15.17;;
66860;SDS011;53770;42.334;23.550;2022-07-29T13:46:01;16.50;;;15.40;;
66860;SDS011;53770;42.334;23.550;2022-07-29T13:48:27;17.20;;;16.00;;
66860;SDS011;53770;42.334;23.550;2022-07-29T13:50:55;18.10;;;16.73;;
66860;SDS011;53770;42.334;23.550;2022-07-29T13:53:22;17.60;;;16.50;;
66860;SDS011;53770;42.334;23.550;2022-07-29T13:55:49;17.80;;;16.50;;
66860;SDS011;53770;42.334;23.550;2022-07-29T13:58:17;17.70;;;16.42;;
66860;SDS011;53770;42.334;23.550;2022-07-29T14:00:43;18.30;;;16.85;;
66860;SDS011;53770;42.334;23.550;2022-07-29T14:03:13;17.33;;;15.95;;
66860;SDS011;53770;42.334;23.550;2022-07-29T14:05:39;16.70;;;15.50;;
66860;SDS011;53770;42.334;23.550;2022-07-29T14:08:06;17.60;;;16.50;;
66860;SDS011;53770;42.334;23.550;2022-07-29T14:10:33;14.90;;;13.88;;
66860;SDS011;53770;42.334;23.550;2022-07-29T14:13:00;16.38;;;15.13;;
66860;SDS011;53770;42.334;23.550;2022-07-29T14:15:27;12.55;;;11.75;;
66860;SDS011;53770;42.334;23.550;2022-07-29T14:17:53;13.25;;;12.25;;
66860;SDS011;53770;42.334;23.550;2022-07-29T14:20:22;12.37;;;11.30;;
66860;SDS011;53770;42.334;23.550;2022-07-29T14:22:48;10.13;;;9.32;;
66860;SDS011;53770;42.334;23.550;2022-07-29T14:25:15;10.88;;;9.50;;
66860;SDS011;53770;42.334;23.550;2022-07-29T14:27:42;10.00;;;9.10;;
66860;SDS011;53770;42.334;23.550;2022-07-29T14:30:09;9.23;;;8.35;;
66860;SDS011;53770;42.334;23.550;2022-07-29T14:32:37;7.30;;;6.67;;
66860;SDS011;53770;42.334;23.550;2022-07-29T14:35:04;7.00;;;6.32;;
66860;SDS011;53770;42.334;23.550;2022-07-29T14:37:33;6.57;;;5.72;;
66860;SDS011;53770;42.334;23.550;2022-07-29T14:40:00;6.88;;;5.43;;
66860;SDS011;53770;42.334;23.550;2022-07-29T14:42:28;5.80;;;5.20;;
66860;SDS011;53770;42.334;23.550;2022-07-29T14:44:56;7.27;;;4.63;;
66860;SDS011;53770;42.334;23.550;2022-07-29T14:47:22;6.25;;;4.60;;
66860;SDS011;53770;42.334;23.550;2022-07-29T14:49:49;6.78;;;4.07;;
66860;SDS011;53770;42.334;23.550;2022-07-29T14:52:16;5.43;;;4.47;;
66860;SDS011;53770;42.334;23.550;2022-07-29T14:54:44;7.57;;;4.47;;
66860;SDS011;53770;42.334;23.550;2022-07-29T14:57:11;4.93;;;4.00;;
66860;SDS011;53770;42.334;23.550;2022-07-29T14:59:38;6.28;;;4.47;;